Latest Coastal Weather Observations for Cape Ferguson

IDQ60701

Issued at 1:31 pm EST Wednesday 13 December 2017 (issued every 10 minutes, with the page automatically refreshed every 10 minutes)

About coastal observations | Map of coastal stations | Coastal observations for QLD | Marine services | Other Formats
Station Details ID: 032182 Name: CAPE FERGUSON NTC AWS Lat: -19.28 Lon: 147.06 Height: 0.0 m
Data from the previous 72 hours. | See also: Recent months for locations in Queensland
Date/Time
EST
Temp
°C
Wind Pressure Rain since
9am
mm
Weather Cloud Vis
km
Sea
Height
m
Swell
Dir  Spd
kts
Gust
kts
hPa Trend Height
m
Period
s
Dir
13/10:00am 28.3 SE 11 14 1012.3 - - - - - - - - -
13/09:30am 28.1 SE 12 16 1012.4 - - - - - - - - -
13/09:00am 27.6 SE 13 16 1012.4 - - - - - - - - -
13/08:30am 27.3 SSE 14 18 1012.3 - - - - - - - - -
13/08:00am 26.9 SSE 15 20 1012.2 - - - - - - - - -
13/07:30am 26.9 SE 15 18 1012.1 - - - - - - - - -
13/07:00am 26.6 SSE 15 18 1011.7 - - - - - - - - -
13/06:30am 26.4 SSE 15 19 1011.3 - - - - - - - - -
13/06:00am 26.0 SSE 15 19 1010.9 - - - - - - - - -
13/05:30am 25.3 SSE 16 19 1010.8 - - - - - - - - -
13/05:00am 25.1 SSE 15 18 1010.3 - - - - - - - - -
13/04:30am 25.4 SSE 14 17 1010.1 - - - - - - - - -
13/04:00am 25.6 SSE 13 15 1010.2 - - - - - - - - -
13/03:30am 25.6 SSE 11 15 1010.1 - - - - - - - - -
13/03:00am 25.8 SSE 11 14 1010.1 - - - - - - - - -
13/02:30am 26.0 SSE 11 14 1010.1 - - - - - - - - -
13/02:00am 26.3 SSE 11 14 1010.2 - - - - - - - - -
13/01:30am 26.5 SSE 11 14 1010.6 - - - - - - - - -
13/01:00am 26.9 SE 11 15 1011.0 - - - - - - - - -
13/12:30am 27.6 ESE 15 22 1011.4 - - - - - - - - -
13/12:00am 27.6 ESE 16 20 1011.7 - - - - - - - - -
 
Date/Time
EST
Temp
°C
Wind Pressure Rain since
9am
mm
Weather Cloud Vis
km
Sea
Height
m
Swell
Dir  Spd
kts
Gust
kts
hPa Trend Height
m
Period
s
Dir
12/11:30pm 27.9 ESE 16 21 1011.8 - - - - - - - - -
12/11:00pm 27.7 ESE 15 19 1011.9 - - - - - - - - -
12/10:30pm 27.8 ESE 16 22 1012.1 - - - - - - - - -
12/10:00pm 28.0 ESE 16 20 1012.4 - - - - - - - - -
12/09:30pm 27.9 ESE 15 20 1012.1 - - - - - - - - -
12/09:00pm 28.0 E 14 17 1012.0 - - - - - - - - -
12/08:30pm 27.8 E 14 19 1011.9 - - - - - - - - -
12/08:00pm 27.9 E 15 19 1011.9 - - - - - - - - -
12/07:30pm 27.9 E 15 18 1011.6 - - - - - - - - -
12/07:00pm 27.9 E 15 18 1011.4 - - - - - - - - -
12/06:30pm 28.5 E 13 16 1011.1 - - - - - - - - -
12/06:00pm 29.8 E 13 18 1010.9 - - - - - - - - -
12/05:30pm 30.5 E 12 15 1010.8 - - - - - - - - -
12/05:00pm 29.3 E 14 16 1010.4 - - - - - - - - -
12/12:30pm 29.8 E 15 18 1012.1 - - - - - - - - -
12/12:00pm 29.9 E 17 21 1012.5 - - - - - - - - -
12/11:30am 28.1 E 15 18 1012.9 - - - - - - - - -
12/11:00am 28.0 E 12 16 1013.1 - - - - - - - - -
12/10:30am 28.1 ESE 10 14 1013.1 - - - - - - - - -
12/10:00am 28.3 SE 11 16 1013.2 - - - - - - - - -
12/09:30am 28.0 SSE 10 13 1013.2 - - - - - - - - -
12/09:00am 27.9 SSE 11 15 1013.1 - - - - - - - - -
12/08:30am 27.7 SSE 12 14 1013.2 - - - - - - - - -
12/08:00am 27.4 SSE 12 15 1012.9 - - - - - - - - -
12/07:30am 27.3 SSE 14 17 1012.6 - - - - - - - - -
12/07:00am 27.2 SSE 13 16 1012.4 - - - - - - - - -
12/06:30am 26.6 SSE 14 17 1012.4 - - - - - - - - -
12/06:00am 25.7 SSE 15 18 1011.9 - - - - - - - - -
12/05:30am 25.4 SSE 14 16 1011.3 - - - - - - - - -
12/05:00am 25.5 SSE 13 16 1010.9 - - - - - - - - -
12/04:30am 25.9 SSE 14 17 1010.8 - - - - - - - - -
12/04:00am 26.0 SSE 13 16 1010.9 - - - - - - - - -
12/03:30am 26.5 SE 12 15 1010.8 - - - - - - - - -
12/03:00am 26.6 SSE 10 12 1010.7 - - - - - - - - -
12/02:30am 26.6 SSE 8 10 1010.7 - - - - - - - - -
12/02:00am 25.1 WNW 4 7 1010.7 - - - - - - - - -
12/01:30am 25.4 W 5 8 1011.0 - - - - - - - - -
12/01:00am 24.9 W 8 12 1011.4 - - - - - - - - -
12/12:30am 24.8 NW 4 5 1011.7 - - - - - - - - -
12/12:00am 25.1 NW 2 4 1012.1 - - - - - - - - -
 
Date/Time
EST
Temp
°C
Wind Pressure Rain since
9am
mm
Weather Cloud Vis
km
Sea
Height
m
Swell
Dir  Spd
kts
Gust
kts
hPa Trend Height
m
Period
s
Dir
11/11:30pm 25.0 WNW 3 5 1012.5 - - - - - - - - -
11/11:00pm 25.1 NW 3 4 1012.7 - - - - - - - - -
11/10:30pm 24.5 WNW 3 6 1012.9 - - - - - - - - -
11/10:00pm 24.1 W 5 7 1012.9 - - - - - - - - -
11/09:30pm 24.2 W 3 5 1012.6 - - - - - - - - -
11/09:00pm 23.4 SW 7 16 1012.3 - - - - - - - - -
11/08:30pm 25.0 NE 4 9 1011.9 - - - - - - - - -
11/08:00pm 23.6 W 8 10 1012.7 - - - - - - - - -
11/07:30pm 23.4 NNW 5 8 1012.2 - - - - - - - - -
11/07:00pm 22.2 SSW 19 38 1012.7 - - - - - - - - -
11/06:57pm 23.2 S 18 38 1012.6 - - - - - - - - -
11/06:54pm 23.5 S 17 38 1012.3 - - - - - - - - -
11/06:53pm 22.9 S 16 27 1012.5 - - - - - - - - -
11/06:52pm 22.8 S 16 24 1012.6 - - - - - - - - -
11/06:30pm 28.2 ENE 15 18 1011.7 - - - - - - - - -
11/06:00pm 28.8 E 15 21 1011.4 - - - - - - - - -
11/05:30pm 29.5 ENE 15 18 1010.9 - - - - - - - - -
11/05:00pm 29.8 ENE 14 17 1010.2 - - - - - - - - -
11/04:30pm 28.9 ENE 13 16 1009.9 - - - - - - - - -
11/04:00pm 29.3 ENE 13 15 1010.0 - - - - - - - - -
11/03:30pm 29.9 ENE 12 14 1009.9 - - - - - - - - -
11/03:00pm 30.3 ENE 11 14 1010.3 - - - - - - - - -
11/02:30pm 29.9 ENE 11 13 1010.7 - - - - - - - - -
11/02:00pm 29.4 ENE 10 12 1011.1 - - - - - - - - -
11/01:30pm 28.9 E 13 17 1011.6 - - - - - - - - -
11/01:00pm 28.9 E 15 18 1012.0 - - - - - - - - -
11/12:30pm 28.5 E 15 18 1012.5 - - - - - - - - -
11/12:00pm 28.5 E 15 18 1012.8 - - - - - - - - -
11/11:30am 28.4 E 13 16 1013.1 - - - - - - - - -
11/11:00am 28.6 E 10 13 1013.4 - - - - - - - - -
11/10:30am 28.9 ESE 9 13 1013.5 - - - - - - - - -
11/10:00am 28.7 SE 11 14 1013.8 - - - - - - - - -
11/09:30am 28.5 SE 13 15 1014.2 - - - - - - - - -
11/09:00am 28.5 SE 11 15 1014.2 - - - - - - - - -
11/08:30am 28.1 SE 11 15 1014.3 - - - - - - - - -
11/08:00am 28.1 SSE 12 17 1014.1 - - - - - - - - -
11/07:30am 28.0 SSE 13 17 1013.9 - - - - - - - - -
11/07:00am 27.7 SSE 13 17 1013.5 - - - - - - - - -
11/06:30am 27.1 SSE 12 16 1013.2 - - - - - - - - -
11/06:00am 26.5 SSE 14 18 1013.3 - - - - - - - - -
11/05:30am 25.9 SSE 15 18 1013.1 - - - - - - - - -
11/05:00am 25.9 SSE 14 18 1012.9 - - - - - - - - -
11/04:30am 26.1 SSE 13 16 1012.9 - - - - - - - - -
11/04:00am 26.7 SSE 14 18 1012.7 - - - - - - - - -
11/03:30am 27.1 SE 11 14 1012.6 - - - - - - - - -
11/03:00am 26.9 SE 11 15 1012.5 - - - - - - - - -
11/02:30am 27.0 SE 11 15 1012.5 - - - - - - - - -
11/02:00am 26.9 SE 12 15 1012.6 - - - - - - - - -
11/01:30am 27.9 ESE 18 23 1013.2 - - - - - - - - -
11/01:00am 27.9 ESE 18 22 1013.5 - - - - - - - - -
11/12:30am 27.9 ESE 18 23 1013.8 - - - - - - - - -
11/12:00am 27.9 ESE 17 23 1014.0 - - - - - - - - -
 
Date/Time
EST
Temp
°C
Wind Pressure Rain since
9am
mm
Weather Cloud Vis
km
Sea
Height
m
Swell
Dir  Spd
kts
Gust
kts
hPa Trend Height
m
Period
s
Dir
10/11:30pm 27.9 E 17 21 1014.1 - - - - - - - - -
10/11:00pm 28.3 ESE 18 23 1014.7 - - - - - - - - -
10/10:30pm 28.1 ESE 17 23 1014.8 - - - - - - - - -
10/10:00pm 28.0 E 19 22 1015.0 - - - - - - - - -
10/09:30pm 28.1 ESE 17 21 1014.4 - - - - - - - - -
10/09:00pm 28.3 E 17 22 1014.0 - - - - - - - - -
10/08:30pm 28.1 E 17 20 1014.1 - - - - - - - - -
10/08:00pm 28.0 E 16 20 1013.5 - - - - - - - - -
10/07:30pm 28.2 E 18 21 1013.3 - - - - - - - - -
10/07:00pm 28.3 E 18 22 1013.1 - - - - - - - - -
10/06:30pm 28.9 E 19 23 1012.7 - - - - - - - - -
10/06:00pm 29.4 E 18 22 1012.4 - - - - - - - - -
10/05:30pm 29.9 E 22 26 1012.2 - - - - - - - - -
10/05:00pm 29.9 ENE 16 20 1012.0 - - - - - - - - -
10/04:30pm 28.8 ENE 14 17 1011.6 - - - - - - - - -
10/04:00pm 29.2 E 14 18 1011.6 - - - - - - - - -
10/03:30pm 29.3 ENE 16 19 1011.5 - - - - - - - - -
10/03:00pm 29.7 ENE 18 21 1011.9 - - - - - - - - -
10/02:30pm 29.7 ENE 18 22 1012.1 - - - - - - - - -
10/02:00pm 29.8 ENE 17 20 1012.2 - - - - - - - - -

Other Formats:

Comma delimited format used in spreadsheet applications
http://www.bom.gov.au/fwo/IDQ60701/IDQ60701.94297.axf

JavaScript Object Notation format (JSON) in row-major order
http://www.bom.gov.au/fwo/IDQ60701/IDQ60701.94297.json